ACA888 CYYZ-KDCA
Flight info
| Callsign | ACA888 |
|---|---|
| Flight time | N/A |
| Altitude | 37000 |
| Route | RIGUS5 PSB SKILS5 |
| Aircraft | B77W/H-SDE1E2E3FGHIJ2J3J4J5M1RWXY/LB1D1 |
Departure
| Time | 2026-05-07 02:09 |
|---|---|
| Airport | Toronto Pearson International Airport (CYYZ) |
Arrival
| Time | N/A |
|---|---|
| Airport | Ronald Reagan Washington National Airport (KDCA) |
| Time | Latitude | Longitude | Altitude | Speed | Heading |
|---|---|---|---|---|---|
| 2026-05-07 01:59 | 43.67595 | -79.61007 | 560 ft | 0 kts | 331° |
| 2026-05-07 02:00 | 43.67581 | -79.60997 | 569 ft | 3 kts | 331° |
| 2026-05-07 02:00 | 43.67563 | -79.60983 | 568 ft | 3 kts | 331° |
| 2026-05-07 02:01 | 43.67545 | -79.60970 | 567 ft | 3 kts | 331° |
| 2026-05-07 02:01 | 43.67528 | -79.60957 | 567 ft | 3 kts | 331° |
| 2026-05-07 02:01 | 43.67524 | -79.60954 | 567 ft | 0 kts | 331° |
| 2026-05-07 02:03 | 43.67526 | -79.60956 | 567 ft | 3 kts | 329° |
| 2026-05-07 02:03 | 43.67536 | -79.61009 | 568 ft | 6 kts | 254° |
| 2026-05-07 02:04 | 43.67508 | -79.61054 | 565 ft | 6 kts | 224° |
| 2026-05-07 02:04 | 43.67475 | -79.61092 | 558 ft | 7 kts | 212° |
| 2026-05-07 02:04 | 43.67427 | -79.61104 | 565 ft | 8 kts | 175° |
| 2026-05-07 02:04 | 43.67358 | -79.61098 | 560 ft | 11 kts | 185° |
| 2026-05-07 02:05 | 43.67294 | -79.61161 | 562 ft | 12 kts | 231° |
| 2026-05-07 02:05 | 43.67244 | -79.61251 | 563 ft | 12 kts | 233° |
| 2026-05-07 02:05 | 43.67196 | -79.61339 | 566 ft | 1 kts | 231° |
| 2026-05-07 02:07 | 43.67182 | -79.61362 | 566 ft | 11 kts | 228° |
| 2026-05-07 02:07 | 43.67144 | -79.61541 | 563 ft | 12 kts | 318° |
| 2026-05-07 02:07 | 43.67172 | -79.61578 | 561 ft | 0 kts | 316° |
| 2026-05-07 02:08 | 43.67182 | -79.61591 | 566 ft | 12 kts | 316° |
| 2026-05-07 02:09 | 43.67360 | -79.61827 | 566 ft | 77 kts | 316° |
| 2026-05-07 02:09 | 43.68054 | -79.62736 | 590 ft | 194 kts | 316° |
| 2026-05-07 02:09 | 43.69129 | -79.64141 | 1856 ft | 219 kts | 316° |
| 2026-05-07 02:09 | 43.70190 | -79.65531 | 3502 ft | 205 kts | 314° |
| 2026-05-07 02:10 | 43.70911 | -79.67196 | 4250 ft | 213 kts | 281° |
| 2026-05-07 02:10 | 43.70663 | -79.69319 | 4674 ft | 243 kts | 242° |
| 2026-05-07 02:10 | 43.69410 | -79.70969 | 5534 ft | 259 kts | 216° |
| 2026-05-07 02:10 | 43.67677 | -79.71824 | 6473 ft | 273 kts | 194° |
| 2026-05-07 02:11 | 43.65754 | -79.71691 | 7392 ft | 284 kts | 167° |
| 2026-05-07 02:11 | 43.63912 | -79.70642 | 8280 ft | 289 kts | 160° |
| 2026-05-07 02:11 | 43.62116 | -79.69452 | 9222 ft | 291 kts | 159° |
| 2026-05-07 02:11 | 43.60297 | -79.68212 | 10199 ft | 292 kts | 159° |
| 2026-05-07 02:12 | 43.58425 | -79.66938 | 10782 ft | 310 kts | 159° |
| 2026-05-07 02:12 | 43.56395 | -79.65576 | 11017 ft | 339 kts | 159° |
| 2026-05-07 02:12 | 43.54176 | -79.64098 | 11257 ft | 369 kts | 159° |
| 2026-05-07 02:12 | 43.51823 | -79.62532 | 11972 ft | 382 kts | 159° |
| 2026-05-07 02:13 | 43.49401 | -79.60921 | 12961 ft | 390 kts | 160° |
| 2026-05-07 02:13 | 43.46937 | -79.59288 | 14024 ft | 396 kts | 160° |
| 2026-05-07 02:13 | 43.44443 | -79.57641 | 15085 ft | 398 kts | 161° |
| 2026-05-07 02:13 | 43.41935 | -79.55989 | 16160 ft | 401 kts | 161° |
| 2026-05-07 02:14 | 43.39402 | -79.54327 | 17197 ft | 405 kts | 161° |
| 2026-05-07 02:14 | 43.36840 | -79.52653 | 18199 ft | 410 kts | 162° |
| 2026-05-07 02:14 | 43.34248 | -79.50961 | 19063 ft | 415 kts | 162° |
| 2026-05-07 02:14 | 43.31621 | -79.49251 | 19853 ft | 421 kts | 162° |
| 2026-05-07 02:15 | 43.28955 | -79.47517 | 20637 ft | 427 kts | 162° |
| 2026-05-07 02:15 | 43.26257 | -79.45763 | 21420 ft | 432 kts | 162° |
| 2026-05-07 02:15 | 43.23520 | -79.43984 | 22206 ft | 438 kts | 162° |
| 2026-05-07 02:15 | 43.20746 | -79.42183 | 22991 ft | 443 kts | 162° |
| 2026-05-07 02:16 | 43.17981 | -79.40389 | 23704 ft | 448 kts | 162° |
| 2026-05-07 02:16 | 43.15150 | -79.38554 | 24300 ft | 453 kts | 162° |
| 2026-05-07 02:16 | 43.12277 | -79.36694 | 24882 ft | 458 kts | 162° |
| 2026-05-07 02:16 | 43.09378 | -79.34819 | 25470 ft | 463 kts | 163° |
| 2026-05-07 02:17 | 43.06450 | -79.32928 | 26031 ft | 468 kts | 163° |
| 2026-05-07 02:17 | 43.03484 | -79.31015 | 26580 ft | 474 kts | 164° |
| 2026-05-07 02:17 | 43.00486 | -79.29083 | 27110 ft | 479 kts | 165° |
| 2026-05-07 02:17 | 42.97463 | -79.27137 | 27625 ft | 484 kts | 165° |
| 2026-05-07 02:18 | 42.94400 | -79.25167 | 28134 ft | 488 kts | 166° |
| 2026-05-07 02:18 | 42.91317 | -79.23186 | 28620 ft | 493 kts | 166° |
| 2026-05-07 02:18 | 42.88194 | -79.21182 | 29082 ft | 497 kts | 167° |
| 2026-05-07 02:18 | 42.85055 | -79.19170 | 29512 ft | 501 kts | 167° |
| 2026-05-07 02:19 | 42.81895 | -79.17146 | 29924 ft | 504 kts | 168° |
| 2026-05-07 02:19 | 42.78712 | -79.15107 | 30362 ft | 505 kts | 168° |
| 2026-05-07 02:19 | 42.75535 | -79.13070 | 30868 ft | 504 kts | 169° |
| 2026-05-07 02:19 | 42.72363 | -79.11036 | 31391 ft | 502 kts | 169° |
| 2026-05-07 02:20 | 42.69206 | -79.09017 | 31891 ft | 501 kts | 170° |
| 2026-05-07 02:20 | 42.66042 | -79.07000 | 32336 ft | 501 kts | 170° |
| 2026-05-07 02:20 | 42.62888 | -79.04995 | 32774 ft | 501 kts | 170° |
| 2026-05-07 02:20 | 42.59724 | -79.02988 | 33229 ft | 501 kts | 171° |
| 2026-05-07 02:21 | 42.56571 | -79.00987 | 33677 ft | 501 kts | 171° |
| 2026-05-07 02:21 | 42.53413 | -78.98986 | 34095 ft | 501 kts | 171° |
| 2026-05-07 02:21 | 42.50254 | -78.96986 | 34439 ft | 501 kts | 171° |
| 2026-05-07 02:21 | 42.47095 | -78.94990 | 34764 ft | 501 kts | 171° |
| 2026-05-07 02:22 | 42.43931 | -78.92992 | 35087 ft | 502 kts | 170° |
| 2026-05-07 02:22 | 42.40769 | -78.90996 | 35419 ft | 502 kts | 170° |
| 2026-05-07 02:22 | 42.37601 | -78.88999 | 35741 ft | 502 kts | 170° |
| 2026-05-07 02:22 | 42.34442 | -78.87007 | 36030 ft | 501 kts | 170° |
| 2026-05-07 02:23 | 42.31280 | -78.85016 | 36318 ft | 501 kts | 170° |
| 2026-05-07 02:23 | 42.28120 | -78.83034 | 36635 ft | 502 kts | 170° |
| 2026-05-07 02:23 | 42.24953 | -78.81049 | 36912 ft | 502 kts | 170° |
| 2026-05-07 02:23 | 42.21770 | -78.79059 | 36943 ft | 506 kts | 170° |
| 2026-05-07 02:24 | 42.15386 | -78.75064 | 36957 ft | 504 kts | 170° |
| 2026-05-07 02:24 | 42.09120 | -78.71132 | 36966 ft | 498 kts | 170° |
| 2026-05-07 02:25 | 42.02837 | -78.67219 | 36968 ft | 497 kts | 171° |
| 2026-05-07 02:25 | 41.96563 | -78.63321 | 36977 ft | 496 kts | 171° |
| 2026-05-07 02:26 | 41.90277 | -78.59431 | 36955 ft | 499 kts | 171° |
| 2026-05-07 02:26 | 41.83959 | -78.55527 | 36942 ft | 501 kts | 171° |
| 2026-05-07 02:27 | 41.77631 | -78.51618 | 36941 ft | 501 kts | 171° |
| 2026-05-07 02:27 | 41.71290 | -78.47708 | 36959 ft | 503 kts | 172° |
| 2026-05-07 02:28 | 41.64921 | -78.43790 | 36971 ft | 504 kts | 172° |
| 2026-05-07 02:28 | 41.60342 | -78.40980 | 36962 ft | 505 kts | 172° |
| 2026-05-07 02:31 | 41.58001 | -78.39545 | 36953 ft | 505 kts | 172° |
| 2026-05-07 02:31 | 41.51613 | -78.35629 | 36966 ft | 505 kts | 172° |
| 2026-05-07 02:32 | 41.45218 | -78.31727 | 36974 ft | 505 kts | 172° |
| 2026-05-07 02:32 | 41.38830 | -78.27828 | 36964 ft | 505 kts | 172° |
| 2026-05-07 02:33 | 41.32424 | -78.23932 | 36969 ft | 507 kts | 172° |
| 2026-05-07 02:33 | 41.26039 | -78.20060 | 36642 ft | 509 kts | 172° |
| 2026-05-07 02:34 | 41.22820 | -78.18109 | 36364 ft | 507 kts | 172° |
| 2026-05-07 02:34 | 41.19631 | -78.16169 | 36115 ft | 502 kts | 172° |
| 2026-05-07 02:34 | 41.16460 | -78.14242 | 35856 ft | 497 kts | 172° |
| 2026-05-07 02:34 | 41.13321 | -78.12342 | 35592 ft | 494 kts | 172° |
| 2026-05-07 02:35 | 41.10205 | -78.10464 | 35332 ft | 491 kts | 173° |
| 2026-05-07 02:35 | 41.07099 | -78.08599 | 35098 ft | 489 kts | 173° |
| 2026-05-07 02:35 | 41.04014 | -78.06745 | 34830 ft | 487 kts | 173° |
| 2026-05-07 02:35 | 41.00939 | -78.04896 | 34590 ft | 484 kts | 173° |
| 2026-05-07 02:36 | 40.97879 | -78.03060 | 34346 ft | 482 kts | 173° |
| 2026-05-07 02:36 | 40.94834 | -78.01233 | 34117 ft | 480 kts | 173° |
| 2026-05-07 02:36 | 40.91813 | -77.99406 | 33852 ft | 473 kts | 173° |
| 2026-05-07 02:36 | 40.88876 | -77.97593 | 33470 ft | 457 kts | 173° |
| 2026-05-07 02:37 | 40.86053 | -77.95802 | 33097 ft | 443 kts | 172° |
| 2026-05-07 02:37 | 40.83316 | -77.94021 | 32674 ft | 432 kts | 172° |
| 2026-05-07 02:37 | 40.80669 | -77.92292 | 32259 ft | 412 kts | 177° |
| 2026-05-07 02:37 | 40.78075 | -77.91202 | 31860 ft | 383 kts | 184° |
| 2026-05-07 02:38 | 40.75510 | -77.90150 | 31517 ft | 388 kts | 181° |
| 2026-05-07 02:38 | 40.72949 | -77.89010 | 31148 ft | 390 kts | 181° |
| 2026-05-07 02:38 | 40.70387 | -77.87845 | 30793 ft | 390 kts | 180° |
| 2026-05-07 02:38 | 40.67822 | -77.86683 | 30432 ft | 389 kts | 180° |
| 2026-05-07 02:39 | 40.65266 | -77.85535 | 30058 ft | 388 kts | 180° |
| 2026-05-07 02:39 | 40.62751 | -77.84416 | 29646 ft | 386 kts | 180° |
| 2026-05-07 02:39 | 40.60204 | -77.83292 | 29234 ft | 383 kts | 180° |
| 2026-05-07 02:39 | 40.57686 | -77.82187 | 28841 ft | 380 kts | 180° |
| 2026-05-07 02:40 | 40.55192 | -77.81092 | 28349 ft | 377 kts | 180° |
| 2026-05-07 02:40 | 40.52723 | -77.80011 | 28005 ft | 371 kts | 180° |
| 2026-05-07 02:40 | 40.50286 | -77.78950 | 27591 ft | 368 kts | 180° |
| 2026-05-07 02:40 | 40.47863 | -77.77900 | 27215 ft | 364 kts | 180° |
| 2026-05-07 02:41 | 40.45468 | -77.76863 | 26839 ft | 361 kts | 180° |
| 2026-05-07 02:41 | 40.43086 | -77.75833 | 26458 ft | 359 kts | 180° |
| 2026-05-07 02:41 | 40.40724 | -77.74812 | 26107 ft | 357 kts | 179° |
| 2026-05-07 02:41 | 40.38374 | -77.73797 | 25735 ft | 355 kts | 179° |
| 2026-05-07 02:42 | 40.36035 | -77.72788 | 25366 ft | 353 kts | 179° |
| 2026-05-07 02:42 | 40.33707 | -77.71783 | 24990 ft | 350 kts | 179° |
| 2026-05-07 02:42 | 40.31401 | -77.70787 | 24644 ft | 348 kts | 179° |
| 2026-05-07 02:42 | 40.29110 | -77.69797 | 24281 ft | 346 kts | 179° |
| 2026-05-07 02:43 | 40.26833 | -77.68816 | 23943 ft | 343 kts | 178° |
| 2026-05-07 02:43 | 40.24570 | -77.67841 | 23610 ft | 341 kts | 178° |
| 2026-05-07 02:43 | 40.22320 | -77.66873 | 23215 ft | 339 kts | 178° |
| 2026-05-07 02:43 | 40.20082 | -77.65912 | 22787 ft | 338 kts | 178° |
| 2026-05-07 02:44 | 40.17852 | -77.64954 | 22410 ft | 336 kts | 178° |
| 2026-05-07 02:44 | 40.15668 | -77.64016 | 22021 ft | 334 kts | 178° |
| 2026-05-07 02:44 | 40.13465 | -77.63070 | 21600 ft | 333 kts | 177° |
| 2026-05-07 02:44 | 40.11272 | -77.62129 | 21234 ft | 331 kts | 177° |
| 2026-05-07 02:45 | 40.09086 | -77.61192 | 20849 ft | 330 kts | 177° |
| 2026-05-07 02:45 | 40.06910 | -77.60261 | 20478 ft | 328 kts | 176° |
| 2026-05-07 02:45 | 40.04738 | -77.59332 | 20104 ft | 327 kts | 176° |
| 2026-05-07 02:45 | 40.02577 | -77.58408 | 19745 ft | 327 kts | 176° |
| 2026-05-07 02:46 | 40.00415 | -77.57485 | 19384 ft | 326 kts | 175° |
| 2026-05-07 02:46 | 39.98264 | -77.56566 | 19022 ft | 326 kts | 175° |
| 2026-05-07 02:46 | 39.96109 | -77.55647 | 18681 ft | 325 kts | 175° |